Aviation Digital Data Service (ADDS)

Output produced by METARs form (1221 UTC 20 May 2018)
found at http://aviationweather.gov/adds/metars/
 
KMLU 201153Z 00000KT 7SM CLR 23/21 A3006 RMK AO2 SLP177 T02280211 10256 20211 53013